Time;durP1;ratioP1;P1;durP2;ratioP2;P2;SDS_P1;SDS_P2;PMS_P1;PMS_P2;Temp;Humidity;BMP_temperature;BMP_pressure;BME280_temperature;BME280_humidity;BME280_pressure;Samples;Min_cycle;Max_cycle;Signal;HPM_P1;HPM_P2
2021/07/20 00:00:15;;;;;;;11.98;8.85;;;20.30;99.90;;;;;;5055502;28;20163;-79
2021/07/20 00:03:09;;;;;;;10.63;7.80;;;20.20;99.90;;;;;;5055694;28;20255;-78
2021/07/20 00:05:38;;;;;;;10.82;8.85;;;20.10;99.90;;;;;;5055624;28;20183;-79
2021/07/20 00:08:05;;;;;;;17.05;8.88;;;20.00;99.90;;;;;;5055434;28;20595;-79
2021/07/20 00:10:37;;;;;;;13.63;8.48;;;20.10;99.90;;;;;;5055212;28;20254;-79
2021/07/20 00:13:05;;;;;;;10.10;8.35;;;20.20;99.90;;;;;;5037696;28;20706;-81
2021/07/20 00:15:31;;;;;;;11.73;9.32;;;20.10;99.90;;;;;;5037222;28;20797;-80
2021/07/20 00:17:59;;;;;;;19.20;9.10;;;20.10;99.90;;;;;;5055459;28;20217;-79
2021/07/20 00:20:27;;;;;;;15.98;8.82;;;20.10;99.90;;;;;;5037480;28;20545;-79
2021/07/20 00:22:54;;;;;;;14.52;9.35;;;20.20;99.90;;;;;;5054898;28;20221;-79
2021/07/20 00:25:20;;;;;;;11.40;8.60;;;20.10;99.90;;;;;;5055208;28;20210;-79
2021/07/20 00:27:46;;;;;;;15.15;9.13;;;20.00;99.90;;;;;;5055031;28;20228;-79
2021/07/20 00:30:13;;;;;;;15.48;10.00;;;19.80;99.90;;;;;;5053892;28;20258;-78
2021/07/20 00:32:39;;;;;;;13.63;9.90;;;19.80;99.90;;;;;;5037167;28;20242;-78
2021/07/20 00:35:07;;;;;;;10.50;8.65;;;19.70;99.90;;;;;;5054536;28;20214;-79
2021/07/20 00:37:33;;;;;;;14.88;9.27;;;19.70;99.90;;;;;;5055183;28;20162;-78
2021/07/20 00:39:58;;;;;;;17.27;9.77;;;19.80;99.90;;;;;;5055107;28;20530;-78
2021/07/20 00:42:25;;;;;;;11.13;8.82;;;19.70;99.90;;;;;;5055043;28;20254;-79
2021/07/20 00:44:51;;;;;;;13.32;9.93;;;19.80;99.90;;;;;;5036526;28;20190;-78
2021/07/20 00:47:17;;;;;;;13.52;8.75;;;19.80;99.90;;;;;;5054420;28;20621;-78
2021/07/20 00:49:44;;;;;;;20.55;9.60;;;19.80;99.90;;;;;;5054972;28;20258;-78
2021/07/20 00:52:10;;;;;;;14.18;9.27;;;20.00;99.90;;;;;;5055137;28;20163;-79
2021/07/20 00:54:37;;;;;;;12.18;10.00;;;20.00;99.90;;;;;;5054977;28;20264;-79
2021/07/20 00:57:03;;;;;;;11.48;9.93;;;19.70;99.90;;;;;;5055251;28;20167;-79
2021/07/20 00:59:29;;;;;;;11.02;9.35;;;19.50;99.90;;;;;;5054890;28;20640;-78
2021/07/20 01:01:55;;;;;;;12.27;10.02;;;19.50;99.90;;;;;;5054949;28;20171;-78
2021/07/20 01:04:22;;;;;;;13.57;9.65;;;19.50;99.90;;;;;;5054386;28;20559;-79
2021/07/20 01:06:50;;;;;;;13.00;8.82;;;19.50;99.90;;;;;;5054215;28;20167;-78
2021/07/20 01:09:17;;;;;;;11.30;9.32;;;19.50;99.90;;;;;;5036319;28;20167;-79
2021/07/20 01:11:44;;;;;;;16.48;10.05;;;19.50;99.90;;;;;;5036301;28;20205;-79
2021/07/20 01:14:11;;;;;;;10.95;9.43;;;19.50;99.90;;;;;;5053922;28;20275;-79
2021/07/20 01:16:38;;;;;;;11.00;9.30;;;19.40;99.90;;;;;;5054015;28;20171;-79
2021/07/20 01:19:06;;;;;;;13.43;9.02;;;19.30;99.90;;;;;;5035865;28;20167;-79
2021/07/20 01:21:37;;;;;;;12.77;9.32;;;19.40;99.90;;;;;;5036099;28;20171;-78
2021/07/20 01:24:11;;;;;;;13.88;9.35;;;19.20;99.90;;;;;;5053853;28;20186;-79
2021/07/20 01:26:37;;;;;;;13.32;8.75;;;19.00;99.90;;;;;;5053971;28;20269;-79
2021/07/20 01:29:04;;;;;;;17.92;10.88;;;19.10;99.90;;;;;;5053921;28;20517;-79
2021/07/20 01:31:35;;;;;;;14.90;9.90;;;19.10;99.90;;;;;;5053774;28;20167;-78
2021/07/20 01:34:02;;;;;;;19.23;9.60;;;19.10;99.90;;;;;;5053530;28;20560;-79
2021/07/20 01:36:31;;;;;;;18.25;10.35;;;19.00;99.90;;;;;;5053453;28;20171;-79
2021/07/20 01:38:57;;;;;;;13.38;9.68;;;19.00;99.90;;;;;;5035864;28;20171;-80
2021/07/20 01:41:24;;;;;;;14.60;10.45;;;18.90;99.90;;;;;;5035639;28;20221;-79
2021/07/20 01:43:59;;;;;;;11.60;9.15;;;18.90;99.90;;;;;;5053360;28;20163;-79
2021/07/20 01:46:30;;;;;;;13.80;9.80;;;19.00;99.90;;;;;;5053346;28;20647;-79
2021/07/20 01:48:58;;;;;;;15.18;10.05;;;18.90;99.90;;;;;;5035680;28;20531;-79
2021/07/20 01:51:26;;;;;;;12.95;9.32;;;18.90;99.90;;;;;;5035524;28;20178;-79
2021/07/20 01:53:53;;;;;;;18.73;9.75;;;18.90;99.90;;;;;;5053241;28;20195;-79
2021/07/20 01:56:20;;;;;;;14.05;9.85;;;19.10;99.90;;;;;;5053426;28;20171;-79
2021/07/20 01:58:46;;;;;;;15.82;9.93;;;19.10;99.90;;;;;;5053143;28;20206;-79
2021/07/20 02:01:26;;;;;;;11.23;9.10;;;18.90;99.90;;;;;;5035233;28;20168;-79
2021/07/20 02:09:29;;;;;;;11.55;9.85;;;19.00;99.90;;;;;;5053343;28;20634;-79
2021/07/20 02:11:56;;;;;;;13.20;10.02;;;18.80;99.90;;;;;;5034886;28;20178;-79
2021/07/20 02:14:28;;;;;;;14.50;9.85;;;18.80;99.90;;;;;;5034840;28;20214;-79
2021/07/20 02:16:56;;;;;;;14.27;9.80;;;18.80;99.90;;;;;;5034965;28;20515;-79
2021/07/20 02:19:49;;;;;;;15.13;9.10;;;18.70;99.90;;;;;;5052668;28;20193;-79
2021/07/20 02:22:17;;;;;;;12.73;9.50;;;18.70;99.90;;;;;;5049430;28;20214;-79
2021/07/20 02:24:46;;;;;;;11.50;9.60;;;18.60;99.90;;;;;;5052812;28;20171;-79
2021/07/20 02:27:13;;;;;;;10.70;8.77;;;18.70;99.90;;;;;;5052628;28;20258;-79
2021/07/20 02:29:39;;;;;;;15.48;10.70;;;18.60;99.90;;;;;;5052836;28;20163;-80
2021/07/20 02:32:09;;;;;;;13.77;9.27;;;18.50;99.90;;;;;;5052800;28;20167;-79
2021/07/20 02:34:37;;;;;;;12.27;9.48;;;18.40;99.90;;;;;;5052603;28;20213;-80
2021/07/20 02:37:04;;;;;;;12.65;9.48;;;18.40;99.90;;;;;;5034987;28;20585;-79
2021/07/20 02:39:31;;;;;;;16.67;10.32;;;18.50;99.90;;;;;;5052707;28;20197;-79
2021/07/20 02:41:58;;;;;;;15.85;9.77;;;18.50;99.90;;;;;;5052745;28;20631;-79
2021/07/20 02:44:25;;;;;;;16.42;10.23;;;18.50;99.90;;;;;;5034466;28;20194;-79
2021/07/20 02:46:52;;;;;;;29.67;10.07;;;18.60;99.90;;;;;;5034858;28;20210;-79
2021/07/20 02:49:18;;;;;;;15.90;10.70;;;18.40;99.90;;;;;;5052821;28;20651;-79
2021/07/20 02:51:47;;;;;;;14.82;10.82;;;18.40;99.90;;;;;;5034967;28;20250;-79
2021/07/20 02:54:14;;;;;;;11.63;10.15;;;18.30;99.90;;;;;;5052098;28;20209;-79
2021/07/20 02:56:42;;;;;;;13.40;10.30;;;18.40;99.90;;;;;;5052633;28;20585;-79
2021/07/20 02:59:10;;;;;;;16.08;10.50;;;18.40;99.90;;;;;;5052535;28;20201;-80
2021/07/20 03:01:38;;;;;;;14.05;10.07;;;18.30;99.90;;;;;;5052626;28;20156;-79
2021/07/20 03:04:05;;;;;;;16.23;11.20;;;18.40;99.90;;;;;;5052560;28;20261;-79
2021/07/20 03:06:32;;;;;;;15.60;10.32;;;18.20;99.90;;;;;;5034416;28;20597;-79
2021/07/20 03:08:59;;;;;;;15.05;10.52;;;18.10;99.90;;;;;;5052748;28;20266;-79
2021/07/20 03:11:31;;;;;;;11.50;8.60;;;18.10;99.90;;;;;;5052104;28;20169;-78
2021/07/20 03:14:01;;;;;;;18.25;10.82;;;18.20;99.90;;;;;;5034228;28;20199;-78
2021/07/20 03:16:28;;;;;;;13.85;10.32;;;18.10;99.90;;;;;;5051954;28;20164;-79
2021/07/20 03:18:54;;;;;;;17.58;10.43;;;17.90;99.90;;;;;;5052367;28;20676;-79
2021/07/20 03:21:22;;;;;;;18.75;10.00;;;18.00;99.90;;;;;;5034191;28;20527;-79
2021/07/20 03:23:50;;;;;;;21.20;10.27;;;18.00;99.90;;;;;;5052374;28;20167;-79
2021/07/20 03:26:16;;;;;;;17.23;10.55;;;17.90;99.90;;;;;;5034237;28;20255;-79
2021/07/20 03:28:43;;;;;;;12.27;9.68;;;18.00;99.90;;;;;;5052065;28;20166;-79
2021/07/20 03:31:10;;;;;;;14.95;9.65;;;18.00;99.90;;;;;;5052149;28;20164;-79
2021/07/20 03:33:38;;;;;;;24.05;10.73;;;18.00;99.90;;;;;;5034079;28;20163;-79
2021/07/20 03:36:06;;;;;;;14.23;10.55;;;17.90;99.90;;;;;;5052101;28;20195;-79
2021/07/20 03:38:34;;;;;;;13.52;9.85;;;17.80;99.90;;;;;;5052000;28;20527;-79
2021/07/20 03:41:00;;;;;;;16.48;10.25;;;17.80;99.90;;;;;;5051816;28;20189;-78
2021/07/20 03:43:27;;;;;;;14.63;10.18;;;17.70;99.90;;;;;;5033953;28;20167;-79
2021/07/20 03:45:55;;;;;;;13.85;9.88;;;17.80;99.90;;;;;;5034033;28;20623;-79
2021/07/20 03:48:22;;;;;;;17.20;10.95;;;17.80;99.90;;;;;;5034251;28;20248;-79
2021/07/20 03:50:53;;;;;;;20.83;10.52;;;17.80;99.90;;;;;;5034446;28;20256;-79
2021/07/20 03:53:19;;;;;;;20.02;11.07;;;17.80;99.90;;;;;;5051839;28;20198;-79
2021/07/20 03:55:54;;;;;;;13.88;9.82;;;17.90;99.90;;;;;;5033958;28;20211;-79
2021/07/20 03:58:20;;;;;;;15.80;9.23;;;18.20;99.90;;;;;;5051934;28;20578;-79
2021/07/20 04:00:55;;;;;;;17.73;10.52;;;18.10;99.90;;;;;;5051804;28;20499;-79
2021/07/20 04:03:21;;;;;;;21.95;9.57;;;18.20;99.90;;;;;;5051815;28;20197;-79
2021/07/20 04:05:49;;;;;;;21.65;10.63;;;17.90;99.90;;;;;;5055456;28;20191;-79
2021/07/20 04:08:17;;;;;;;15.82;10.45;;;17.90;99.90;;;;;;5055614;28;20635;-79
2021/07/20 04:10:46;;;;;;;20.25;10.07;;;18.00;99.90;;;;;;5037689;28;20254;-78
2021/07/20 04:13:12;;;;;;;15.60;9.55;;;18.00;99.90;;;;;;5037709;28;20221;-79
2021/07/20 04:15:48;;;;;;;12.90;9.05;;;18.10;99.90;;;;;;5055139;28;20210;-78
2021/07/20 04:18:15;;;;;;;14.32;9.80;;;18.00;99.90;;;;;;5037593;28;20695;-79
2021/07/20 04:20:45;;;;;;;14.93;9.48;;;18.00;99.90;;;;;;5055459;28;20191;-79
2021/07/20 04:23:14;;;;;;;16.60;10.00;;;17.90;99.90;;;;;;5037288;28;20189;-79
2021/07/20 04:25:43;;;;;;;20.50;9.98;;;18.00;99.90;;;;;;5037110;28;20729;-79
2021/07/20 04:28:10;;;;;;;18.35;10.60;;;18.20;99.90;;;;;;5055122;28;20156;-79
2021/07/20 04:30:38;;;;;;;21.48;10.15;;;18.10;99.90;;;;;;5054703;28;20646;-79
2021/07/20 04:33:04;;;;;;;15.50;10.52;;;18.00;99.90;;;;;;5055005;28;20164;-79
2021/07/20 04:35:31;;;;;;;17.25;10.45;;;18.10;99.90;;;;;;5054918;28;20783;-78
2021/07/20 04:37:59;;;;;;;17.73;9.82;;;18.10;99.90;;;;;;5055007;28;20155;-78
2021/07/20 04:40:24;;;;;;;18.13;10.05;;;18.10;99.90;;;;;;5055142;28;20175;-78
2021/07/20 04:42:50;;;;;;;18.35;10.25;;;18.10;99.90;;;;;;5037108;28;20156;-78
2021/07/20 04:45:16;;;;;;;14.48;9.95;;;18.10;99.90;;;;;;5054557;28;20738;-79
2021/07/20 04:47:43;;;;;;;15.65;11.23;;;18.20;99.90;;;;;;5054727;28;20167;-79
2021/07/20 04:50:11;;;;;;;18.38;10.20;;;18.20;99.90;;;;;;5054730;28;20178;-80
2021/07/20 04:52:41;;;;;;;18.33;10.00;;;18.40;99.90;;;;;;5054958;28;20168;-80
2021/07/20 04:55:08;;;;;;;16.05;10.18;;;18.50;99.90;;;;;;5054334;28;20206;-80
2021/07/20 04:57:37;;;;;;;16.40;10.05;;;18.60;99.90;;;;;;5054155;28;20197;-80
2021/07/20 05:00:08;;;;;;;19.60;10.25;;;18.50;99.90;;;;;;5054595;28;20174;-80
2021/07/20 05:02:36;;;;;;;17.95;10.77;;;18.40;99.90;;;;;;5054364;28;20579;-79
2021/07/20 05:05:03;;;;;;;17.88;10.27;;;18.40;99.90;;;;;;5036608;28;20555;-81
2021/07/20 05:07:31;;;;;;;24.50;10.32;;;18.30;99.90;;;;;;5036396;28;20163;-80
2021/07/20 05:09:57;;;;;;;16.05;11.00;;;18.30;99.90;;;;;;5054395;28;20195;-80
2021/07/20 05:12:24;;;;;;;18.98;9.93;;;18.40;99.90;;;;;;5036264;28;20174;-79
2021/07/20 05:14:50;;;;;;;13.50;11.50;;;18.40;99.90;;;;;;5054123;28;20202;-80
2021/07/20 05:17:17;;;;;;;16.77;10.23;;;18.20;99.90;;;;;;5035813;28;20167;-80
2021/07/20 05:19:43;;;;;;;19.80;10.18;;;18.30;99.90;;;;;;5036501;28;20267;-79
2021/07/20 05:22:10;;;;;;;18.20;10.50;;;18.50;99.90;;;;;;5054050;28;20178;-80
2021/07/20 05:24:36;;;;;;;22.40;11.10;;;18.60;99.90;;;;;;5036025;28;20191;-79
2021/07/20 05:27:02;;;;;;;15.00;9.52;;;18.70;99.90;;;;;;5054681;28;20524;-80
2021/07/20 05:29:29;;;;;;;16.35;9.93;;;18.70;99.90;;;;;;5054030;28;20159;-80
2021/07/20 05:31:56;;;;;;;17.23;10.48;;;18.90;99.90;;;;;;5036057;28;20209;-80
2021/07/20 05:34:23;;;;;;;16.92;10.43;;;18.90;99.90;;;;;;5053650;28;20271;-80
2021/07/20 05:36:49;;;;;;;16.88;10.05;;;18.80;99.90;;;;;;5053864;28;20167;-79
2021/07/20 05:39:15;;;;;;;19.52;11.00;;;18.90;99.90;;;;;;5053249;28;20177;-80
2021/07/20 05:41:42;;;;;;;18.42;10.85;;;18.80;99.90;;;;;;5053513;28;20198;-81
2021/07/20 05:44:13;;;;;;;14.18;10.55;;;19.00;99.90;;;;;;5053280;28;20163;-80
2021/07/20 05:46:40;;;;;;;14.73;11.27;;;19.10;99.90;;;;;;5053546;28;20167;-78
2021/07/20 05:49:07;;;;;;;19.15;9.75;;;19.10;99.90;;;;;;5035527;28;20163;-80
2021/07/20 05:51:37;;;;;;;12.57;9.50;;;18.90;99.90;;;;;;5053068;28;20163;-78
2021/07/20 05:54:03;;;;;;;13.60;9.90;;;19.00;99.90;;;;;;5035377;28;20245;-79
2021/07/20 05:56:30;;;;;;;16.88;10.05;;;19.00;99.90;;;;;;5053165;28;20174;-80
2021/07/20 05:58:58;;;;;;;19.77;10.90;;;18.90;99.90;;;;;;5053059;28;20170;-80
2021/07/20 06:01:24;;;;;;;16.63;10.45;;;19.20;99.90;;;;;;5052994;28;20577;-79
2021/07/20 06:03:53;;;;;;;23.48;10.63;;;19.30;99.90;;;;;;5052922;28;20241;-79
2021/07/20 06:06:19;;;;;;;13.80;11.07;;;19.30;99.90;;;;;;5034699;28;20216;-79
2021/07/20 06:08:45;;;;;;;17.08;11.38;;;19.30;99.90;;;;;;5052831;28;20160;-79
2021/07/20 06:11:11;;;;;;;16.88;11.20;;;19.20;99.90;;;;;;5052713;28;20244;-79
2021/07/20 06:13:40;;;;;;;15.73;9.82;;;19.10;99.90;;;;;;5052739;28;20168;-79
2021/07/20 06:16:07;;;;;;;20.08;11.23;;;19.10;99.90;;;;;;5052689;28;20190;-81
2021/07/20 06:18:35;;;;;;;13.82;9.50;;;19.20;99.90;;;;;;5052513;28;20163;-80
2021/07/20 06:21:04;;;;;;;21.98;11.02;;;19.40;99.90;;;;;;5052710;28;20175;-79
2021/07/20 06:23:39;;;;;;;16.10;11.65;;;19.40;99.90;;;;;;5053096;28;20171;-79
2021/07/20 06:26:05;;;;;;;22.10;11.10;;;19.40;99.90;;;;;;5052844;28;20339;-79
2021/07/20 06:28:32;;;;;;;16.92;11.43;;;19.40;99.90;;;;;;5052032;28;20246;-80
2021/07/20 06:30:58;;;;;;;13.20;10.23;;;19.70;99.90;;;;;;5052417;28;20171;-79
2021/07/20 06:33:26;;;;;;;22.75;11.10;;;19.80;99.90;;;;;;5052192;28;20601;-83
2021/07/20 06:35:53;;;;;;;15.13;11.48;;;19.90;99.90;;;;;;5052685;28;20671;-81
2021/07/20 06:38:21;;;;;;;17.98;9.85;;;19.90;99.90;;;;;;5034819;28;20204;-80
2021/07/20 06:40:54;;;;;;;17.40;11.27;;;20.10;99.90;;;;;;5052409;28;20167;-79
2021/07/20 06:43:21;;;;;;;16.88;10.52;;;20.00;99.90;;;;;;5052404;28;20522;-79
2021/07/20 06:45:49;;;;;;;17.92;10.40;;;19.70;99.90;;;;;;5034551;28;20187;-80
2021/07/20 06:48:17;;;;;;;27.50;12.25;;;19.60;99.90;;;;;;5052510;28;20171;-80
2021/07/20 06:50:44;;;;;;;15.77;11.05;;;19.70;99.90;;;;;;5052604;28;20163;-80
2021/07/20 06:53:14;;;;;;;15.85;11.13;;;19.70;99.90;;;;;;5052638;28;20651;-80
2021/07/20 06:55:46;;;;;;;20.10;10.98;;;19.50;99.90;;;;;;5052281;28;20215;-80
2021/07/20 06:58:13;;;;;;;17.52;11.07;;;19.50;99.90;;;;;;5052177;28;20163;-80
2021/07/20 07:00:42;;;;;;;15.05;9.57;;;19.30;99.90;;;;;;5052544;28;20171;-80
2021/07/20 07:03:08;;;;;;;14.55;9.80;;;19.70;99.90;;;;;;5034941;28;20542;-78
2021/07/20 07:05:34;;;;;;;16.65;10.45;;;20.00;99.90;;;;;;5053569;28;20214;-80
2021/07/20 07:08:01;;;;;;;15.77;10.57;;;20.10;99.90;;;;;;5034158;28;20179;-81
2021/07/20 07:10:27;;;;;;;13.75;10.18;;;20.20;99.90;;;;;;5034808;28;20220;-82
2021/07/20 07:12:54;;;;;;;18.45;10.20;;;20.10;99.90;;;;;;5034692;28;20632;-80
2021/07/20 07:15:20;;;;;;;12.45;9.90;;;20.40;99.90;;;;;;5051940;28;20230;-80
2021/07/20 07:17:51;;;;;;;15.65;10.95;;;20.60;99.90;;;;;;5052151;28;20160;-82
2021/07/20 07:20:20;;;;;;;17.40;10.45;;;20.70;99.90;;;;;;5017771;28;20262;-81
2021/07/20 07:22:47;;;;;;;15.35;9.75;;;20.90;99.90;;;;;;5034339;28;20170;-80
2021/07/20 07:25:15;;;;;;;14.43;10.65;;;21.50;99.90;;;;;;5052232;28;20286;-80
2021/07/20 07:27:43;;;;;;;18.52;10.55;;;21.60;99.90;;;;;;5052067;28;20709;-80
2021/07/20 07:30:10;;;;;;;16.92;9.45;;;21.70;99.90;;;;;;5052321;28;20243;-80
2021/07/20 07:32:37;;;;;;;21.48;9.38;;;21.70;99.90;;;;;;5034010;28;20171;-81
2021/07/20 07:35:04;;;;;;;15.05;9.38;;;21.90;99.90;;;;;;5051903;28;20213;-83
2021/07/20 07:37:30;;;;;;;10.82;9.43;;;21.70;99.90;;;;;;5051770;28;20168;-80
2021/07/20 07:39:59;;;;;;;20.38;11.30;;;21.80;99.90;;;;;;5054278;28;20163;-80
2021/07/20 07:42:25;;;;;;;19.23;10.45;;;22.00;99.90;;;;;;5055868;28;20549;-81
2021/07/20 07:44:54;;;;;;;14.02;10.02;;;22.30;99.90;;;;;;5037972;28;20194;-82
2021/07/20 07:47:21;;;;;;;15.50;9.70;;;22.90;99.90;;;;;;5055801;28;20601;-81
2021/07/20 07:49:47;;;;;;;13.27;10.07;;;22.90;99.90;;;;;;5055752;28;20163;-80
2021/07/20 07:52:14;;;;;;;18.27;9.43;;;23.60;99.90;;;;;;5037844;28;20167;-80
2021/07/20 07:54:41;;;;;;;15.98;9.18;;;23.60;99.90;;;;;;5055593;28;20352;-81
2021/07/20 07:57:07;;;;;;;9.27;8.35;;;23.40;99.90;;;;;;5055560;28;20197;-80
2021/07/20 07:59:37;;;;;;;10.35;8.05;;;23.70;99.90;;;;;;5038000;28;20555;-80
2021/07/20 08:02:04;;;;;;;11.43;7.68;;;23.50;99.90;;;;;;5037980;28;20534;-80
2021/07/20 08:04:32;;;;;;;13.65;8.57;;;22.90;99.90;;;;;;5037478;28;20191;-80
2021/07/20 08:06:58;;;;;;;9.52;8.57;;;22.60;99.90;;;;;;5055381;28;20620;-80
2021/07/20 08:09:26;;;;;;;13.18;9.10;;;22.60;99.90;;;;;;5037069;28;20201;-80
2021/07/20 08:11:53;;;;;;;16.25;8.38;;;22.40;99.90;;;;;;5055404;28;20167;-81
2021/07/20 08:14:19;;;;;;;14.27;8.82;;;22.60;99.90;;;;;;5055199;28;20202;-80
2021/07/20 08:16:48;;;;;;;11.15;7.65;;;22.30;99.90;;;;;;5055616;28;20175;-80
2021/07/20 08:19:15;;;;;;;13.25;8.25;;;22.30;99.90;;;;;;5054981;28;20159;-80
2021/07/20 08:21:43;;;;;;;12.82;8.27;;;22.40;99.90;;;;;;5054767;28;20666;-80
2021/07/20 08:24:12;;;;;;;17.25;7.32;;;22.70;99.90;;;;;;5054961;28;20265;-81
2021/07/20 08:26:52;;;;;;;14.93;7.40;;;23.00;99.90;;;;;;5037074;28;20179;-81
2021/07/20 08:29:25;;;;;;;13.23;7.78;;;22.90;99.90;;;;;;5037097;28;20167;-80
2021/07/20 08:32:07;;;;;;;10.40;6.38;;;22.70;99.90;;;;;;5054781;28;20175;-81
2021/07/20 08:34:35;;;;;;;12.15;7.65;;;22.60;99.90;;;;;;5054661;28;20238;-81
2021/07/20 08:37:05;;;;;;;8.55;6.88;;;22.80;99.90;;;;;;5054821;28;20246;-84
2021/07/20 08:39:31;;;;;;;7.93;7.10;;;22.80;99.90;;;;;;5054514;28;20255;-80
2021/07/20 08:42:32;;;;;;;13.32;7.05;;;22.70;99.90;;;;;;5054642;28;20629;-80
2021/07/20 08:45:20;;;;;;;11.30;8.38;;;22.90;99.90;;;;;;5053636;28;20202;-80
2021/07/20 08:48:14;;;;;;;11.15;7.30;;;23.00;99.90;;;;;;5036841;28;20571;-80
2021/07/20 08:51:06;;;;;;;8.00;7.20;;;23.00;99.90;;;;;;5053644;28;20172;-79
2021/07/20 08:53:47;;;;;;;16.17;8.10;;;23.20;99.90;;;;;;5053853;28;20652;-80
2021/07/20 08:56:16;;;;;;;13.95;8.40;;;23.00;99.90;;;;;;5054233;28;20202;-80
2021/07/20 08:59:24;;;;;;;10.15;7.03;;;23.10;99.90;;;;;;5054401;28;20167;-80
2021/07/20 09:02:06;;;;;;;7.95;7.07;;;23.40;99.90;;;;;;5005887;28;20641;-83
2021/07/20 09:04:52;;;;;;;11.60;7.15;;;23.60;99.90;;;;;;5054341;28;20281;-82
2021/07/20 09:07:33;;;;;;;19.08;8.43;;;23.60;99.90;;;;;;5053990;28;20178;-80
2021/07/20 09:10:04;;;;;;;12.23;7.43;;;23.40;99.90;;;;;;5054258;28;20750;-81
2021/07/20 09:12:44;;;;;;;10.82;7.45;;;23.40;99.90;;;;;;5054045;28;20228;-80
2021/07/20 09:15:25;;;;;;;11.00;6.85;;;23.30;99.90;;;;;;5035939;28;20206;-81
2021/07/20 09:18:18;;;;;;;10.23;7.47;;;23.30;99.90;;;;;;5035855;28;20179;-80
2021/07/20 09:20:46;;;;;;;9.55;7.32;;;23.10;99.90;;;;;;5035969;28;20627;-81
2021/07/20 09:23:22;;;;;;;11.50;7.25;;;23.40;99.90;;;;;;5053857;28;20182;-80
2021/07/20 09:26:36;;;;;;;17.25;7.10;;;23.60;99.90;;;;;;5053513;28;20194;-80
2021/07/20 09:29:12;;;;;;;9.65;6.85;;;23.70;99.90;;;;;;5033384;28;20183;-83
2021/07/20 09:31:41;;;;;;;11.88;7.63;;;23.80;99.90;;;;;;5053943;28;20182;-78
2021/07/20 09:34:31;;;;;;;12.70;6.68;;;23.90;99.90;;;;;;5053458;28;20687;-79
2021/07/20 09:37:06;;;;;;;8.23;7.30;;;24.30;99.90;;;;;;5053410;28;20195;-79
2021/07/20 09:40:17;;;;;;;11.05;7.47;;;24.10;99.90;;;;;;5035363;28;20171;-79
2021/07/20 09:43:02;;;;;;;9.55;6.97;;;24.30;99.90;;;;;;5053564;28;20163;-81
2021/07/20 09:45:47;;;;;;;12.95;7.90;;;24.10;99.90;;;;;;5053184;28;20202;-79
2021/07/20 09:48:24;;;;;;;12.02;8.98;;;24.30;99.90;;;;;;5053261;28;20178;-80
2021/07/20 09:51:27;;;;;;;9.98;8.05;;;24.10;99.90;;;;;;5053537;28;20650;-79
2021/07/20 09:54:36;;;;;;;12.85;8.23;;;24.50;99.90;;;;;;5053146;28;20171;-79
2021/07/20 09:57:36;;;;;;;8.27;7.47;;;24.80;99.90;;;;;;5035354;28;20175;-79
2021/07/20 10:00:21;;;;;;;7.55;6.80;;;24.70;99.90;;;;;;5053181;28;20631;-79
2021/07/20 10:02:46;;;;;;;15.75;7.82;;;24.40;99.90;;;;;;5035196;28;20174;-79
2021/07/20 10:05:50;;;;;;;7.82;7.00;;;24.40;99.90;;;;;;5052987;28;20184;-79
2021/07/20 10:08:36;;;;;;;12.82;7.97;;;24.50;99.90;;;;;;5052922;28;20614;-79
2021/07/20 10:11:19;;;;;;;9.63;7.55;;;24.40;99.90;;;;;;5053016;28;20159;-79
2021/07/20 10:14:08;;;;;;;11.73;7.47;;;24.20;99.90;;;;;;5052924;28;20167;-80
2021/07/20 10:17:06;;;;;;;11.50;7.50;;;24.20;99.90;;;;;;5052069;28;20711;-79
2021/07/20 10:19:40;;;;;;;9.48;7.85;;;24.10;99.90;;;;;;5030799;28;20202;-80
2021/07/20 10:22:12;;;;;;;8.45;7.30;;;24.10;99.90;;;;;;5034860;28;20368;-79
2021/07/20 10:24:45;;;;;;;10.23;7.20;;;24.30;99.90;;;;;;5052829;28;20187;-79
2021/07/20 10:27:17;;;;;;;10.90;7.95;;;24.40;99.90;;;;;;5034244;28;20263;-79
2021/07/20 10:29:58;;;;;;;23.08;6.45;;;24.20;99.90;;;;;;5052659;28;20158;-79
2021/07/20 10:32:32;;;;;;;11.00;7.15;;;24.40;99.90;;;;;;5052234;28;20175;-80
2021/07/20 10:35:02;;;;;;;11.43;7.47;;;24.60;99.90;;;;;;5052335;28;20240;-80
2021/07/20 10:40:04;;;;;;;9.20;7.88;;;24.90;99.90;;;;;;5018585;28;20194;-79
2021/07/20 10:42:58;;;;;;;12.90;8.00;;;24.70;99.90;;;;;;5034404;28;20177;-79
2021/07/20 10:45:26;;;;;;;9.38;6.97;;;24.60;99.90;;;;;;5052293;28;20183;-80
2021/07/20 10:48:12;;;;;;;11.50;6.50;;;24.30;99.90;;;;;;5052034;28;20241;-80
2021/07/20 10:51:08;;;;;;;15.63;7.55;;;24.20;99.90;;;;;;5034383;28;20196;-80
2021/07/20 10:54:04;;;;;;;12.02;7.72;;;24.50;99.90;;;;;;5052144;28;20634;-80
2021/07/20 10:56:47;;;;;;;11.98;7.00;;;24.80;99.90;;;;;;5051989;28;20190;-79
2021/07/20 10:59:19;;;;;;;12.55;7.32;;;24.70;99.90;;;;;;5052371;28;20175;-80
2021/07/20 11:01:54;;;;;;;18.88;6.50;;;24.90;99.90;;;;;;5034420;28;20174;-79
2021/07/20 11:04:41;;;;;;;9.77;7.03;;;24.90;99.90;;;;;;5052092;28;20185;-80
2021/07/20 11:07:10;;;;;;;12.35;7.70;;;24.70;99.90;;;;;;5052172;28;20635;-80
2021/07/20 11:09:39;;;;;;;8.65;7.40;;;24.70;99.90;;;;;;5052185;28;20562;-80
2021/07/20 11:12:06;;;;;;;8.73;6.50;;;24.90;99.90;;;;;;5052213;28;20650;-80
2021/07/20 11:14:41;;;;;;;13.80;7.45;;;25.00;99.90;;;;;;5054116;28;20658;-80
2021/07/20 11:17:08;;;;;;;12.02;7.65;;;25.10;99.90;;;;;;5038312;28;20174;-80
2021/07/20 11:19:34;;;;;;;10.25;6.60;;;24.80;99.90;;;;;;5056319;28;20174;-79
2021/07/20 11:22:03;;;;;;;12.77;7.13;;;24.70;99.90;;;;;;5056489;28;20173;-80
2021/07/20 11:24:29;;;;;;;8.52;6.32;;;24.70;99.90;;;;;;5038401;28;20232;-80
2021/07/20 11:26:57;;;;;;;14.70;6.97;;;24.70;99.90;;;;;;5057322;28;20186;-80
2021/07/20 11:29:23;;;;;;;11.77;5.82;;;24.80;99.90;;;;;;5037767;28;20171;-80
2021/07/20 11:31:55;;;;;;;8.25;6.30;;;25.00;99.90;;;;;;5055660;28;20170;-80
2021/07/20 11:34:24;;;;;;;12.98;7.30;;;25.20;99.90;;;;;;5055871;28;20205;-83
2021/07/20 11:36:53;;;;;;;7.93;7.15;;;25.20;99.90;;;;;;5056201;28;20163;-80
2021/07/20 11:39:25;;;;;;;13.80;7.43;;;25.20;99.90;;;;;;5055986;28;20171;-80
2021/07/20 11:42:10;;;;;;;10.35;7.40;;;24.90;99.90;;;;;;5056008;28;20657;-80
2021/07/20 11:44:47;;;;;;;12.90;7.38;;;24.90;99.90;;;;;;5055765;28;20274;-80
2021/07/20 11:47:36;;;;;;;16.27;6.72;;;24.90;99.90;;;;;;5055727;28;20270;-81
2021/07/20 11:50:10;;;;;;;7.40;6.50;;;24.70;99.90;;;;;;5055654;28;20253;-80
2021/07/20 11:52:52;;;;;;;8.38;7.10;;;24.80;99.90;;;;;;5037567;28;20171;-82
2021/07/20 11:55:28;;;;;;;7.53;5.93;;;24.80;99.90;;;;;;5055429;28;20684;-81
2021/07/20 11:58:17;;;;;;;8.55;6.68;;;24.70;99.90;;;;;;5055404;28;20206;-80
2021/07/20 12:01:20;;;;;;;10.75;5.78;;;24.90;99.90;;;;;;5055286;28;20533;-81
2021/07/20 12:04:22;;;;;;;11.88;6.72;;;25.10;99.90;;;;;;5037422;28;20233;-80
2021/07/20 12:07:02;;;;;;;12.63;7.28;;;25.20;99.90;;;;;;5055364;28;20163;-80
2021/07/20 12:09:36;;;;;;;7.05;6.28;;;25.20;99.90;;;;;;5037778;28;20658;-80
2021/07/20 12:12:02;;;;;;;13.77;7.03;;;25.20;99.90;;;;;;5055266;28;20186;-80
2021/07/20 12:14:30;;;;;;;10.75;7.32;;;25.20;99.90;;;;;;5055345;28;20207;-79
2021/07/20 12:16:56;;;;;;;10.43;7.20;;;25.10;99.90;;;;;;5055406;28;20167;-80
2021/07/20 12:19:35;;;;;;;11.68;6.45;;;25.20;99.90;;;;;;5055025;28;20179;-80
2021/07/20 12:22:06;;;;;;;12.63;6.80;;;25.10;99.90;;;;;;5055243;28;20163;-80
2021/07/20 12:24:33;;;;;;;10.25;6.28;;;25.40;99.90;;;;;;5055297;28;20187;-80
2021/07/20 12:27:00;;;;;;;14.77;7.20;;;25.50;99.90;;;;;;5054710;28;20190;-82
2021/07/20 12:29:29;;;;;;;8.40;6.55;;;25.50;99.90;;;;;;5054722;28;20252;-80
2021/07/20 12:31:56;;;;;;;14.43;7.07;;;25.40;99.90;;;;;;5054295;28;20160;-81
2021/07/20 12:34:24;;;;;;;12.48;6.40;;;25.40;99.90;;;;;;5036652;28;20233;-81
2021/07/20 12:36:50;;;;;;;10.10;6.13;;;25.20;99.90;;;;;;5054636;28;20174;-80
2021/07/20 12:39:21;;;;;;;7.95;6.60;;;25.30;99.90;;;;;;5054957;28;20184;-82
2021/07/20 12:41:53;;;;;;;8.48;6.53;;;25.40;99.90;;;;;;5054952;28;20163;-82
2021/07/20 12:44:20;;;;;;;10.73;7.15;;;25.60;99.90;;;;;;5054555;28;20191;-80
2021/07/20 12:46:45;;;;;;;12.52;6.93;;;25.60;99.90;;;;;;5036669;28;20195;-80
2021/07/20 12:49:12;;;;;;;8.43;6.30;;;25.50;99.90;;;;;;5054770;28;20195;-81
2021/07/20 12:51:52;;;;;;;9.65;6.82;;;25.20;99.90;;;;;;5036688;28;20175;-80
2021/07/20 12:54:41;;;;;;;9.02;5.72;;;25.50;99.90;;;;;;5036571;28;20271;-80
2021/07/20 12:57:12;;;;;;;7.93;5.85;;;25.50;99.90;;;;;;5054361;28;20296;-81
2021/07/20 12:59:40;;;;;;;9.00;6.65;;;25.30;99.90;;;;;;5054605;28;20167;-81
2021/07/20 13:02:14;;;;;;;8.60;6.13;;;25.30;99.90;;;;;;5053987;28;20206;-80
2021/07/20 13:04:43;;;;;;;6.75;6.15;;;25.40;99.90;;;;;;5054387;28;20191;-80